sensor_id;sensor_type;location;lat;lon;timestamp;pressure;altitude;pressure_sealevel;temperature;humidity
47809;BME280;33573;38.790;-77.084;2022-10-31T00:01:10;101827.33;;;20.04;37.19
47809;BME280;33573;38.790;-77.084;2022-10-31T00:03:38;101833.89;;;20.15;37.01
47809;BME280;33573;38.790;-77.084;2022-10-31T00:06:06;101838.61;;;20.05;36.89
47809;BME280;33573;38.790;-77.084;2022-10-31T00:08:34;101838.65;;;20.47;36.60
47809;BME280;33573;38.790;-77.084;2022-10-31T00:11:02;101843.48;;;19.51;37.89
47809;BME280;33573;38.790;-77.084;2022-10-31T00:13:31;101842.44;;;20.12;37.27
47809;BME280;33573;38.790;-77.084;2022-10-31T00:15:59;101836.87;;;19.80;37.54
47809;BME280;33573;38.790;-77.084;2022-10-31T00:18:27;101830.78;;;19.58;37.16
47809;BME280;33573;38.790;-77.084;2022-10-31T00:21:02;101834.24;;;20.07;36.88
47809;BME280;33573;38.790;-77.084;2022-10-31T00:23:30;101835.69;;;20.63;36.35
47809;BME280;33573;38.790;-77.084;2022-10-31T00:26:01;101835.22;;;20.49;36.24
47809;BME280;33573;38.790;-77.084;2022-10-31T00:28:28;101831.23;;;20.81;36.25
47809;BME280;33573;38.790;-77.084;2022-10-31T00:30:59;101831.67;;;20.78;36.39
47809;BME280;33573;38.790;-77.084;2022-10-31T00:33:27;101834.43;;;20.16;37.16
47809;BME280;33573;38.790;-77.084;2022-10-31T00:35:55;101833.35;;;20.09;37.05
47809;BME280;33573;38.790;-77.084;2022-10-31T00:38:23;101832.39;;;20.17;36.90
47809;BME280;33573;38.790;-77.084;2022-10-31T00:40:51;101834.10;;;19.98;37.49
47809;BME280;33573;38.790;-77.084;2022-10-31T00:43:24;101835.65;;;19.74;37.88
47809;BME280;33573;38.790;-77.084;2022-10-31T00:45:52;101833.08;;;20.01;37.45
47809;BME280;33573;38.790;-77.084;2022-10-31T00:48:20;101836.41;;;19.52;38.13
47809;BME280;33573;38.790;-77.084;2022-10-31T00:50:48;101834.72;;;19.45;37.94
47809;BME280;33573;38.790;-77.084;2022-10-31T00:53:16;101830.75;;;19.56;38.09
47809;BME280;33573;38.790;-77.084;2022-10-31T00:55:44;101827.48;;;19.51;38.27
47809;BME280;33573;38.790;-77.084;2022-10-31T00:58:12;101822.66;;;20.22;37.26
47809;BME280;33573;38.790;-77.084;2022-10-31T01:00:40;101822.41;;;19.89;36.90
47809;BME280;33573;38.790;-77.084;2022-10-31T01:03:08;101821.58;;;20.03;37.54
47809;BME280;33573;38.790;-77.084;2022-10-31T01:05:36;101819.79;;;20.91;36.53
47809;BME280;33573;38.790;-77.084;2022-10-31T01:08:04;101812.86;;;20.39;36.92
47809;BME280;33573;38.790;-77.084;2022-10-31T01:10:32;101810.62;;;20.47;36.80
47809;BME280;33573;38.790;-77.084;2022-10-31T01:13:00;101810.24;;;19.99;37.05
47809;BME280;33573;38.790;-77.084;2022-10-31T01:15:28;101811.16;;;20.13;37.20
47809;BME280;33573;38.790;-77.084;2022-10-31T01:17:56;101809.84;;;20.15;36.77
47809;BME280;33573;38.790;-77.084;2022-10-31T01:20:24;101809.06;;;19.75;37.76
47809;BME280;33573;38.790;-77.084;2022-10-31T01:22:52;101805.67;;;19.68;37.81
47809;BME280;33573;38.790;-77.084;2022-10-31T01:25:20;101807.06;;;19.67;37.81
47809;BME280;33573;38.790;-77.084;2022-10-31T01:27:47;101801.73;;;19.97;37.33
47809;BME280;33573;38.790;-77.084;2022-10-31T01:30:15;101803.26;;;20.06;37.25
47809;BME280;33573;38.790;-77.084;2022-10-31T01:32:43;101806.36;;;20.09;37.12
47809;BME280;33573;38.790;-77.084;2022-10-31T01:35:11;101805.72;;;20.24;36.86
47809;BME280;33573;38.790;-77.084;2022-10-31T01:37:39;101807.51;;;19.85;36.99
47809;BME280;33573;38.790;-77.084;2022-10-31T01:40:09;101810.14;;;19.21;38.33
47809;BME280;33573;38.790;-77.084;2022-10-31T01:42:36;101807.95;;;19.48;38.46
47809;BME280;33573;38.790;-77.084;2022-10-31T01:45:09;101814.73;;;20.20;37.00
47809;BME280;33573;38.790;-77.084;2022-10-31T01:47:42;101817.05;;;19.56;38.27
47809;BME280;33573;38.790;-77.084;2022-10-31T01:50:15;101814.43;;;19.54;37.75
47809;BME280;33573;38.790;-77.084;2022-10-31T01:52:47;101815.39;;;19.13;38.23
47809;BME280;33573;38.790;-77.084;2022-10-31T01:55:19;101812.92;;;19.05;38.53
47809;BME280;33573;38.790;-77.084;2022-10-31T01:57:51;101806.92;;;19.36;38.03
47809;BME280;33573;38.790;-77.084;2022-10-31T02:00:20;101806.56;;;19.02;38.34
47809;BME280;33573;38.790;-77.084;2022-10-31T02:02:49;101809.10;;;18.53;39.34
47809;BME280;33573;38.790;-77.084;2022-10-31T02:05:20;101812.17;;;18.40;39.56
47809;BME280;33573;38.790;-77.084;2022-10-31T02:07:55;101812.25;;;18.63;39.49
47809;BME280;33573;38.790;-77.084;2022-10-31T02:10:25;101812.81;;;18.74;39.55
47809;BME280;33573;38.790;-77.084;2022-10-31T02:12:56;101813.33;;;18.55;39.65
47809;BME280;33573;38.790;-77.084;2022-10-31T02:15:25;101812.37;;;18.26;39.40
47809;BME280;33573;38.790;-77.084;2022-10-31T02:17:53;101811.75;;;18.38;39.10
47809;BME280;33573;38.790;-77.084;2022-10-31T02:20:22;101814.17;;;18.91;38.80
47809;BME280;33573;38.790;-77.084;2022-10-31T02:25:14;101807.27;;;18.71;39.40
47809;BME280;33573;38.790;-77.084;2022-10-31T02:27:57;101800.18;;;19.05;38.53
47809;BME280;33573;38.790;-77.084;2022-10-31T02:30:28;101799.17;;;18.75;38.28
47809;BME280;33573;38.790;-77.084;2022-10-31T02:33:11;101805.39;;;18.46;38.70
47809;BME280;33573;38.790;-77.084;2022-10-31T02:35:52;101812.66;;;18.82;38.45
47809;BME280;33573;38.790;-77.084;2022-10-31T02:38:31;101814.37;;;18.54;38.79
47809;BME280;33573;38.790;-77.084;2022-10-31T02:41:12;101817.46;;;18.27;38.82
47809;BME280;33573;38.790;-77.084;2022-10-31T02:43:53;101817.59;;;18.55;38.82
47809;BME280;33573;38.790;-77.084;2022-10-31T02:46:28;101813.12;;;18.32;38.62
47809;BME280;33573;38.790;-77.084;2022-10-31T02:49:05;101811.07;;;19.34;37.18
47809;BME280;33573;38.790;-77.084;2022-10-31T02:51:36;101802.28;;;19.32;37.07
47809;BME280;33573;38.790;-77.084;2022-10-31T02:54:03;101789.55;;;19.86;36.74
47809;BME280;33573;38.790;-77.084;2022-10-31T02:56:32;101784.47;;;19.64;37.05
47809;BME280;33573;38.790;-77.084;2022-10-31T02:59:02;101778.98;;;19.11;37.38
47809;BME280;33573;38.790;-77.084;2022-10-31T03:01:58;101775.40;;;19.59;37.09
47809;BME280;33573;38.790;-77.084;2022-10-31T03:04:40;101778.57;;;19.31;37.05
47809;BME280;33573;38.790;-77.084;2022-10-31T03:07:18;101774.92;;;19.05;37.29
47809;BME280;33573;38.790;-77.084;2022-10-31T03:09:57;101772.20;;;18.42;38.23
47809;BME280;33573;38.790;-77.084;2022-10-31T03:12:32;101768.08;;;18.52;38.45
47809;BME280;33573;38.790;-77.084;2022-10-31T03:15:11;101766.28;;;18.08;38.77
47809;BME280;33573;38.790;-77.084;2022-10-31T03:17:47;101765.18;;;18.15;39.06
47809;BME280;33573;38.790;-77.084;2022-10-31T03:20:22;101759.89;;;18.68;38.46
47809;BME280;33573;38.790;-77.084;2022-10-31T03:22:51;101756.11;;;18.89;37.79
47809;BME280;33573;38.790;-77.084;2022-10-31T03:25:20;101750.93;;;19.44;36.97
47809;BME280;33573;38.790;-77.084;2022-10-31T03:27:48;101745.33;;;19.46;37.02
47809;BME280;33573;38.790;-77.084;2022-10-31T03:30:17;101742.22;;;19.24;36.90
47809;BME280;33573;38.790;-77.084;2022-10-31T03:32:48;101738.04;;;19.43;36.67
47809;BME280;33573;38.790;-77.084;2022-10-31T03:35:20;101735.17;;;19.70;36.67
47809;BME280;33573;38.790;-77.084;2022-10-31T03:37:52;101733.81;;;19.32;36.78
47809;BME280;33573;38.790;-77.084;2022-10-31T03:40:23;101733.07;;;18.80;37.48
47809;BME280;33573;38.790;-77.084;2022-10-31T03:42:57;101730.95;;;18.84;37.76
47809;BME280;33573;38.790;-77.084;2022-10-31T03:45:29;101733.57;;;18.57;37.78
47809;BME280;33573;38.790;-77.084;2022-10-31T03:47:58;101737.94;;;18.39;38.33
47809;BME280;33573;38.790;-77.084;2022-10-31T03:50:31;101738.01;;;18.19;38.66
47809;BME280;33573;38.790;-77.084;2022-10-31T03:53:08;101735.34;;;18.39;38.34
47809;BME280;33573;38.790;-77.084;2022-10-31T03:55:41;101733.04;;;18.96;37.53
47809;BME280;33573;38.790;-77.084;2022-10-31T03:58:13;101723.70;;;19.06;37.37
47809;BME280;33573;38.790;-77.084;2022-10-31T04:00:46;101721.97;;;19.15;37.29
47809;BME280;33573;38.790;-77.084;2022-10-31T04:03:20;101716.01;;;19.27;37.10
47809;BME280;33573;38.790;-77.084;2022-10-31T04:05:51;101711.10;;;19.44;36.88
47809;BME280;33573;38.790;-77.084;2022-10-31T04:08:24;101709.24;;;18.89;37.28
47809;BME280;33573;38.790;-77.084;2022-10-31T04:10:56;101712.38;;;18.93;37.60
47809;BME280;33573;38.790;-77.084;2022-10-31T04:13:29;101715.92;;;19.19;37.52
47809;BME280;33573;38.790;-77.084;2022-10-31T04:15:58;101721.00;;;18.65;38.00
47809;BME280;33573;38.790;-77.084;2022-10-31T04:18:26;101721.99;;;18.46;38.61
47809;BME280;33573;38.790;-77.084;2022-10-31T04:21:01;101724.16;;;18.33;38.42
47809;BME280;33573;38.790;-77.084;2022-10-31T04:23:29;101721.63;;;18.48;38.58
47809;BME280;33573;38.790;-77.084;2022-10-31T04:25:57;101720.66;;;18.43;38.29
47809;BME280;33573;38.790;-77.084;2022-10-31T04:28:26;101713.11;;;19.38;37.46
47809;BME280;33573;38.790;-77.084;2022-10-31T04:30:54;101710.49;;;18.79;37.48
47809;BME280;33573;38.790;-77.084;2022-10-31T04:33:21;101706.36;;;18.86;37.38
47809;BME280;33573;38.790;-77.084;2022-10-31T04:35:49;101706.10;;;18.60;37.79
47809;BME280;33573;38.790;-77.084;2022-10-31T04:38:18;101699.08;;;18.69;37.61
47809;BME280;33573;38.790;-77.084;2022-10-31T04:40:46;101698.51;;;18.91;37.33
47809;BME280;33573;38.790;-77.084;2022-10-31T04:43:14;101699.32;;;18.60;37.74
47809;BME280;33573;38.790;-77.084;2022-10-31T04:45:42;101692.69;;;18.48;38.29
47809;BME280;33573;38.790;-77.084;2022-10-31T04:48:10;101689.37;;;18.45;38.33
47809;BME280;33573;38.790;-77.084;2022-10-31T04:50:48;101685.72;;;18.86;38.05
47809;BME280;33573;38.790;-77.084;2022-10-31T04:53:15;101682.33;;;18.41;38.69
47809;BME280;33573;38.790;-77.084;2022-10-31T04:55:43;101680.87;;;18.35;38.80
47809;BME280;33573;38.790;-77.084;2022-10-31T04:58:17;101673.98;;;18.29;38.54
47809;BME280;33573;38.790;-77.084;2022-10-31T05:00:44;101674.93;;;18.34;38.07
47809;BME280;33573;38.790;-77.084;2022-10-31T05:03:12;101675.73;;;18.79;38.14
47809;BME280;33573;38.790;-77.084;2022-10-31T05:05:41;101672.81;;;18.85;37.75
47809;BME280;33573;38.790;-77.084;2022-10-31T05:08:09;101672.14;;;18.47;37.94
47809;BME280;33573;38.790;-77.084;2022-10-31T05:10:37;101666.87;;;18.65;38.12
47809;BME280;33573;38.790;-77.084;2022-10-31T05:13:05;101662.90;;;18.83;37.86
47809;BME280;33573;38.790;-77.084;2022-10-31T05:15:33;101661.67;;;18.74;37.99
47809;BME280;33573;38.790;-77.084;2022-10-31T05:18:01;101656.69;;;18.83;37.79
47809;BME280;33573;38.790;-77.084;2022-10-31T05:20:30;101660.71;;;18.51;38.28
47809;BME280;33573;38.790;-77.084;2022-10-31T05:22:58;101662.18;;;18.75;38.30
47809;BME280;33573;38.790;-77.084;2022-10-31T05:25:27;101657.81;;;18.57;38.17
47809;BME280;33573;38.790;-77.084;2022-10-31T05:27:56;101658.08;;;18.27;38.62
47809;BME280;33573;38.790;-77.084;2022-10-31T05:30:26;101649.48;;;18.60;38.46
47809;BME280;33573;38.790;-77.084;2022-10-31T05:32:55;101636.25;;;18.78;37.89
47809;BME280;33573;38.790;-77.084;2022-10-31T05:35:24;101634.16;;;18.74;37.97
47809;BME280;33573;38.790;-77.084;2022-10-31T05:37:52;101634.50;;;18.75;37.98
47809;BME280;33573;38.790;-77.084;2022-10-31T05:40:21;101638.57;;;18.89;38.09
47809;BME280;33573;38.790;-77.084;2022-10-31T05:42:51;101636.13;;;18.86;37.89
47809;BME280;33573;38.790;-77.084;2022-10-31T05:45:20;101632.87;;;19.12;37.85
47809;BME280;33573;38.790;-77.084;2022-10-31T05:47:52;101632.93;;;18.88;37.87
47809;BME280;33573;38.790;-77.084;2022-10-31T05:50:20;101636.45;;;18.65;38.20
47809;BME280;33573;38.790;-77.084;2022-10-31T05:52:55;101635.78;;;18.88;38.20
47809;BME280;33573;38.790;-77.084;2022-10-31T05:55:23;101639.60;;;18.71;38.42
47809;BME280;33573;38.790;-77.084;2022-10-31T05:57:51;101634.42;;;18.66;38.48
47809;BME280;33573;38.790;-77.084;2022-10-31T06:00:20;101634.18;;;18.41;38.55
47809;BME280;33573;38.790;-77.084;2022-10-31T06:02:48;101631.38;;;18.78;38.34
47809;BME280;33573;38.790;-77.084;2022-10-31T06:05:16;101630.03;;;18.41;38.54
47809;BME280;33573;38.790;-77.084;2022-10-31T06:07:44;101627.52;;;18.50;38.44
47809;BME280;33573;38.790;-77.084;2022-10-31T06:10:12;101628.63;;;18.81;38.00
47809;BME280;33573;38.790;-77.084;2022-10-31T06:12:40;101631.71;;;18.76;38.08
47809;BME280;33573;38.790;-77.084;2022-10-31T06:15:09;101633.18;;;18.47;38.15
47809;BME280;33573;38.790;-77.084;2022-10-31T06:17:37;101637.30;;;18.97;38.14
47809;BME280;33573;38.790;-77.084;2022-10-31T06:20:06;101633.42;;;19.34;37.66
47809;BME280;33573;38.790;-77.084;2022-10-31T06:22:34;101634.24;;;19.23;37.79
47809;BME280;33573;38.790;-77.084;2022-10-31T06:25:02;101636.27;;;18.80;38.11
47809;BME280;33573;38.790;-77.084;2022-10-31T06:27:30;101634.20;;;18.67;38.27
47809;BME280;33573;38.790;-77.084;2022-10-31T06:29:58;101636.62;;;18.34;38.75
47809;BME280;33573;38.790;-77.084;2022-10-31T06:32:25;101634.31;;;18.32;38.75
47809;BME280;33573;38.790;-77.084;2022-10-31T06:34:53;101628.23;;;18.60;38.68
47809;BME280;33573;38.790;-77.084;2022-10-31T06:37:21;101629.19;;;18.46;38.56
47809;BME280;33573;38.790;-77.084;2022-10-31T06:39:49;101629.88;;;18.38;38.65
47809;BME280;33573;38.790;-77.084;2022-10-31T06:42:17;101625.35;;;18.96;38.18
47809;BME280;33573;38.790;-77.084;2022-10-31T06:44:45;101625.73;;;19.03;38.09
47809;BME280;33573;38.790;-77.084;2022-10-31T06:47:13;101625.82;;;18.42;38.28
47809;BME280;33573;38.790;-77.084;2022-10-31T06:49:41;101622.42;;;18.40;38.34
47809;BME280;33573;38.790;-77.084;2022-10-31T06:52:09;101629.27;;;18.86;38.12
47809;BME280;33573;38.790;-77.084;2022-10-31T06:54:37;101631.53;;;18.84;38.08
47809;BME280;33573;38.790;-77.084;2022-10-31T06:57:06;101623.44;;;18.95;38.28
47809;BME280;33573;38.790;-77.084;2022-10-31T06:59:34;101620.89;;;18.34;38.47
47809;BME280;33573;38.790;-77.084;2022-10-31T07:02:02;101618.77;;;18.52;38.60
47809;BME280;33573;38.790;-77.084;2022-10-31T07:04:30;101617.96;;;18.75;38.57
47809;BME280;33573;38.790;-77.084;2022-10-31T07:06:58;101614.45;;;18.58;38.79
47809;BME280;33573;38.790;-77.084;2022-10-31T07:09:26;101608.72;;;18.69;38.63
47809;BME280;33573;38.790;-77.084;2022-10-31T07:11:54;101607.64;;;18.45;38.66
47809;BME280;33573;38.790;-77.084;2022-10-31T07:14:22;101606.95;;;18.61;38.78
47809;BME280;33573;38.790;-77.084;2022-10-31T07:16:50;101600.65;;;18.91;38.38
47809;BME280;33573;38.790;-77.084;2022-10-31T07:19:18;101596.62;;;19.08;38.15
47809;BME280;33573;38.790;-77.084;2022-10-31T07:21:46;101596.60;;;19.06;37.86
47809;BME280;33573;38.790;-77.084;2022-10-31T07:24:14;101594.26;;;19.18;38.01
47809;BME280;33573;38.790;-77.084;2022-10-31T07:26:42;101593.97;;;18.96;38.08
47809;BME280;33573;38.790;-77.084;2022-10-31T07:29:10;101595.06;;;18.95;38.43
47809;BME280;33573;38.790;-77.084;2022-10-31T07:31:38;101594.94;;;18.54;38.66
47809;BME280;33573;38.790;-77.084;2022-10-31T07:34:06;101581.86;;;18.16;38.84
47809;BME280;33573;38.790;-77.084;2022-10-31T07:36:34;101582.68;;;18.38;38.94
47809;BME280;33573;38.790;-77.084;2022-10-31T07:39:02;101582.43;;;18.41;38.94
47809;BME280;33573;38.790;-77.084;2022-10-31T07:41:30;101577.01;;;18.61;38.66
47809;BME280;33573;38.790;-77.084;2022-10-31T07:43:58;101583.16;;;18.84;38.30
47809;BME280;33573;38.790;-77.084;2022-10-31T07:46:26;101577.35;;;18.97;38.18
47809;BME280;33573;38.790;-77.084;2022-10-31T07:48:55;101576.65;;;19.16;38.19
47809;BME280;33573;38.790;-77.084;2022-10-31T07:51:23;101575.01;;;18.94;38.23
47809;BME280;33573;38.790;-77.084;2022-10-31T07:53:51;101571.31;;;18.66;38.28
47809;BME280;33573;38.790;-77.084;2022-10-31T07:56:19;101568.92;;;19.54;37.67
47809;BME280;33573;38.790;-77.084;2022-10-31T07:58:47;101574.12;;;19.06;38.38
47809;BME280;33573;38.790;-77.084;2022-10-31T08:01:15;101570.10;;;18.68;38.96
47809;BME280;33573;38.790;-77.084;2022-10-31T08:03:43;101566.22;;;18.37;39.11
47809;BME280;33573;38.790;-77.084;2022-10-31T08:06:11;101571.46;;;18.55;39.13
47809;BME280;33573;38.790;-77.084;2022-10-31T08:08:39;101571.17;;;18.40;39.03
47809;BME280;33573;38.790;-77.084;2022-10-31T08:11:07;101570.30;;;18.45;39.05
47809;BME280;33573;38.790;-77.084;2022-10-31T08:13:35;101573.69;;;18.70;39.05
47809;BME280;33573;38.790;-77.084;2022-10-31T08:16:04;101571.85;;;19.00;38.25
47809;BME280;33573;38.790;-77.084;2022-10-31T08:18:31;101574.81;;;18.95;38.32
47809;BME280;33573;38.790;-77.084;2022-10-31T08:21:00;101577.95;;;19.24;37.96
47809;BME280;33573;38.790;-77.084;2022-10-31T08:23:28;101573.17;;;19.38;37.68
47809;BME280;33573;38.790;-77.084;2022-10-31T08:25:57;101570.80;;;18.99;37.94
47809;BME280;33573;38.790;-77.084;2022-10-31T08:28:25;101567.33;;;19.28;37.96
47809;BME280;33573;38.790;-77.084;2022-10-31T08:30:53;101568.40;;;19.77;37.56
47809;BME280;33573;38.790;-77.084;2022-10-31T08:33:21;101572.34;;;18.97;37.94
47809;BME280;33573;38.790;-77.084;2022-10-31T08:35:49;101577.84;;;18.81;38.59
47809;BME280;33573;38.790;-77.084;2022-10-31T08:38:17;101578.26;;;18.35;39.19
47809;BME280;33573;38.790;-77.084;2022-10-31T08:40:48;101580.46;;;18.61;38.95
47809;BME280;33573;38.790;-77.084;2022-10-31T08:43:17;101574.40;;;18.80;38.95
47809;BME280;33573;38.790;-77.084;2022-10-31T08:45:48;101574.89;;;18.55;39.06
47809;BME280;33573;38.790;-77.084;2022-10-31T08:48:17;101572.09;;;19.05;38.69
47809;BME280;33573;38.790;-77.084;2022-10-31T08:50:45;101569.04;;;19.55;37.61
47809;BME280;33573;38.790;-77.084;2022-10-31T08:53:15;101568.11;;;19.31;37.95
47809;BME280;33573;38.790;-77.084;2022-10-31T08:55:43;101562.36;;;18.86;38.16
47809;BME280;33573;38.790;-77.084;2022-10-31T08:58:13;101559.17;;;19.70;37.74
47809;BME280;33573;38.790;-77.084;2022-10-31T09:00:42;101564.10;;;19.51;37.67
47809;BME280;33573;38.790;-77.084;2022-10-31T09:03:11;101563.74;;;19.11;37.89
47809;BME280;33573;38.790;-77.084;2022-10-31T09:05:40;101567.96;;;18.97;38.46
47809;BME280;33573;38.790;-77.084;2022-10-31T09:08:09;101564.29;;;18.78;38.71
47809;BME280;33573;38.790;-77.084;2022-10-31T09:10:37;101562.52;;;18.58;38.98
47809;BME280;33573;38.790;-77.084;2022-10-31T09:13:08;101556.90;;;18.66;39.11
47809;BME280;33573;38.790;-77.084;2022-10-31T09:15:38;101556.54;;;18.34;39.37
47809;BME280;33573;38.790;-77.084;2022-10-31T09:18:07;101554.21;;;18.31;39.41
47809;BME280;33573;38.790;-77.084;2022-10-31T09:20:36;101555.61;;;19.04;38.67
47809;BME280;33573;38.790;-77.084;2022-10-31T09:23:05;101549.47;;;18.82;38.63
47809;BME280;33573;38.790;-77.084;2022-10-31T09:25:34;101541.51;;;18.82;38.24
47809;BME280;33573;38.790;-77.084;2022-10-31T09:28:03;101544.78;;;19.06;38.32
47809;BME280;33573;38.790;-77.084;2022-10-31T09:30:33;101547.68;;;19.00;38.35
47809;BME280;33573;38.790;-77.084;2022-10-31T09:33:03;101547.77;;;18.88;38.49
47809;BME280;33573;38.790;-77.084;2022-10-31T09:35:31;101541.77;;;18.81;38.59
47809;BME280;33573;38.790;-77.084;2022-10-31T09:38:00;101547.75;;;18.51;38.72
47809;BME280;33573;38.790;-77.084;2022-10-31T09:40:33;101547.73;;;18.81;38.71
47809;BME280;33573;38.790;-77.084;2022-10-31T09:43:08;101558.18;;;18.35;39.68
47809;BME280;33573;38.790;-77.084;2022-10-31T09:45:47;101566.76;;;18.63;38.94
47809;BME280;33573;38.790;-77.084;2022-10-31T09:48:29;101576.43;;;19.39;38.13
47809;BME280;33573;38.790;-77.084;2022-10-31T09:51:03;101573.74;;;20.08;37.06
47809;BME280;33573;38.790;-77.084;2022-10-31T09:53:36;101563.71;;;19.83;36.86
47809;BME280;33573;38.790;-77.084;2022-10-31T09:56:08;101549.06;;;20.02;36.61
47809;BME280;33573;38.790;-77.084;2022-10-31T09:58:40;101546.96;;;20.21;36.40
47809;BME280;33573;38.790;-77.084;2022-10-31T10:01:19;101544.46;;;20.45;36.12
47809;BME280;33573;38.790;-77.084;2022-10-31T10:03:53;101553.88;;;19.80;37.13
47809;BME280;33573;38.790;-77.084;2022-10-31T10:06:25;101540.87;;;19.89;37.04
47809;BME280;33573;38.790;-77.084;2022-10-31T10:08:55;101531.49;;;19.33;37.80
47809;BME280;33573;38.790;-77.084;2022-10-31T10:11:34;101538.93;;;18.72;38.69
47809;BME280;33573;38.790;-77.084;2022-10-31T10:14:16;101546.65;;;18.49;39.00
47809;BME280;33573;38.790;-77.084;2022-10-31T10:16:58;101540.94;;;19.63;37.84
47809;BME280;33573;38.790;-77.084;2022-10-31T10:19:43;101548.35;;;20.10;37.19
47809;BME280;33573;38.790;-77.084;2022-10-31T10:22:18;101542.78;;;20.26;36.97
47809;BME280;33573;38.790;-77.084;2022-10-31T10:24:59;101548.06;;;20.24;36.64
47809;BME280;33573;38.790;-77.084;2022-10-31T10:27:41;101553.61;;;20.09;36.95
47809;BME280;33573;38.790;-77.084;2022-10-31T10:30:15;101552.00;;;19.73;37.51
47809;BME280;33573;38.790;-77.084;2022-10-31T10:32:45;101556.28;;;20.08;37.79
47809;BME280;33573;38.790;-77.084;2022-10-31T10:35:22;101549.82;;;19.52;37.87
47809;BME280;33573;38.790;-77.084;2022-10-31T10:37:55;101544.84;;;19.09;38.58
47809;BME280;33573;38.790;-77.084;2022-10-31T10:40:25;101551.68;;;19.80;37.57
47809;BME280;33573;38.790;-77.084;2022-10-31T10:43:01;101558.78;;;19.88;37.46
47809;BME280;33573;38.790;-77.084;2022-10-31T10:45:39;101558.74;;;20.02;37.34
47809;BME280;33573;38.790;-77.084;2022-10-31T10:48:13;101555.90;;;19.54;38.06
47809;BME280;33573;38.790;-77.084;2022-10-31T10:50:48;101555.81;;;19.22;38.23
47809;BME280;33573;38.790;-77.084;2022-10-31T10:53:30;101546.41;;;19.50;38.14
47809;BME280;33573;38.790;-77.084;2022-10-31T10:56:11;101542.83;;;19.21;38.25
47809;BME280;33573;38.790;-77.084;2022-10-31T10:58:43;101541.86;;;19.06;38.79
47809;BME280;33573;38.790;-77.084;2022-10-31T11:01:13;101542.64;;;19.80;37.82
47809;BME280;33573;38.790;-77.084;2022-10-31T11:03:42;101535.26;;;20.01;37.51
47809;BME280;33573;38.790;-77.084;2022-10-31T11:06:19;101538.08;;;19.97;37.58
47809;BME280;33573;38.790;-77.084;2022-10-31T11:08:48;101543.60;;;20.01;37.67
47809;BME280;33573;38.790;-77.084;2022-10-31T11:11:24;101538.58;;;19.37;38.60
47809;BME280;33573;38.790;-77.084;2022-10-31T11:13:57;101550.65;;;19.80;37.96
47809;BME280;33573;38.790;-77.084;2022-10-31T11:16:31;101553.24;;;19.25;38.70
47809;BME280;33573;38.790;-77.084;2022-10-31T11:19:13;101561.02;;;19.32;38.63
47809;BME280;33573;38.790;-77.084;2022-10-31T11:21:44;101563.84;;;19.13;39.31
47809;BME280;33573;38.790;-77.084;2022-10-31T11:24:15;101551.50;;;19.42;38.52
47809;BME280;33573;38.790;-77.084;2022-10-31T11:26:45;101560.99;;;19.75;38.04
47809;BME280;33573;38.790;-77.084;2022-10-31T11:29:16;101567.48;;;20.07;37.64
47809;BME280;33573;38.790;-77.084;2022-10-31T11:31:46;101570.06;;;20.39;37.25
47809;BME280;33573;38.790;-77.084;2022-10-31T11:34:17;101583.68;;;19.93;37.73
47809;BME280;33573;38.790;-77.084;2022-10-31T11:36:48;101580.09;;;20.12;37.82
47809;BME280;33573;38.790;-77.084;2022-10-31T11:39:19;101584.28;;;19.90;38.19
47809;BME280;33573;38.790;-77.084;2022-10-31T11:41:50;101580.19;;;19.93;38.65
47809;BME280;33573;38.790;-77.084;2022-10-31T11:44:20;101578.15;;;19.60;38.75
47809;BME280;33573;38.790;-77.084;2022-10-31T11:46:51;101582.72;;;19.96;38.14
47809;BME280;33573;38.790;-77.084;2022-10-31T11:49:24;101583.83;;;19.60;38.71
47809;BME280;33573;38.790;-77.084;2022-10-31T11:51:56;101594.90;;;19.73;38.58
47809;BME280;33573;38.790;-77.084;2022-10-31T11:54:33;101602.95;;;19.97;38.45
47809;BME280;33573;38.790;-77.084;2022-10-31T11:57:03;101596.30;;;19.91;38.54
47809;BME280;33573;38.790;-77.084;2022-10-31T11:59:32;101593.34;;;19.97;38.51
47809;BME280;33573;38.790;-77.084;2022-10-31T12:02:01;101593.04;;;20.04;38.46
47809;BME280;33573;38.790;-77.084;2022-10-31T12:04:38;101594.21;;;20.17;37.79
47809;BME280;33573;38.790;-77.084;2022-10-31T12:07:08;101594.64;;;20.58;37.80
47809;BME280;33573;38.790;-77.084;2022-10-31T12:09:37;101599.34;;;20.26;38.44
47809;BME280;33573;38.790;-77.084;2022-10-31T12:12:17;101597.97;;;19.77;38.81
47809;BME280;33573;38.790;-77.084;2022-10-31T12:14:58;101596.84;;;19.56;39.42
47809;BME280;33573;38.790;-77.084;2022-10-31T12:17:34;101600.56;;;19.83;39.00
47809;BME280;33573;38.790;-77.084;2022-10-31T12:20:17;101607.42;;;20.08;38.28
47809;BME280;33573;38.790;-77.084;2022-10-31T12:22:53;101599.74;;;20.37;38.44
47809;BME280;33573;38.790;-77.084;2022-10-31T12:25:31;101584.39;;;20.82;37.50
47809;BME280;33573;38.790;-77.084;2022-10-31T12:28:13;101595.05;;;20.52;37.86
47809;BME280;33573;38.790;-77.084;2022-10-31T12:30:54;101593.93;;;20.45;38.36
47809;BME280;33573;38.790;-77.084;2022-10-31T12:33:39;101599.59;;;20.56;37.98
47809;BME280;33573;38.790;-77.084;2022-10-31T12:36:32;101605.80;;;20.36;38.39
47809;BME280;33573;38.790;-77.084;2022-10-31T12:39:15;101604.89;;;20.78;37.57
47809;BME280;33573;38.790;-77.084;2022-10-31T12:41:52;101603.43;;;20.69;37.80
47809;BME280;33573;38.790;-77.084;2022-10-31T12:44:48;101598.90;;;20.76;37.71
47809;BME280;33573;38.790;-77.084;2022-10-31T12:47:36;101604.14;;;20.73;37.66
47809;BME280;33573;38.790;-77.084;2022-10-31T12:50:21;101610.42;;;19.79;39.27
47809;BME280;33573;38.790;-77.084;2022-10-31T12:53:00;101599.33;;;20.09;38.89